Time;durP1;ratioP1;P1;durP2;ratioP2;P2;SDS_P1;SDS_P2;PMS_P1;PMS_P2;Temp;Humidity;BMP_temperature;BMP_pressure;BME280_temperature;BME280_humidity;BME280_pressure;Samples;Min_cycle;Max_cycle;Signal;HPM_P1;HPM_P2
2024/03/29 00:02:24;;;;;;;7.75;1.90;;;;;;;;;;5091607;28;20050;-29
2024/03/29 00:04:51;;;;;;;4.55;2.00;;;;;;;;;;5091943;28;20071;-29
2024/03/29 00:07:18;;;;;;;5.60;1.90;;;;;;;;;;5091751;28;20028;-30
2024/03/29 00:09:45;;;;;;;7.50;1.90;;;;;;;;;;5091469;28;20077;-30
2024/03/29 00:12:12;;;;;;;4.82;1.67;;;;;;;;;;5091668;28;20024;-30
2024/03/29 00:14:39;;;;;;;5.53;1.80;;;;;;;;;;5091696;28;20032;-30
2024/03/29 00:17:06;;;;;;;4.32;1.65;;;;;;;;;;5091608;28;20028;-31
2024/03/29 00:19:33;;;;;;;7.32;1.80;;;;;;;;;;5091503;28;20501;-30
2024/03/29 00:22:01;;;;;;;3.35;1.63;;;;;;;;;;5091633;28;20099;-30
2024/03/29 00:24:28;;;;;;;6.13;1.55;;;;;;;;;;5091400;28;20028;-29
2024/03/29 00:26:55;;;;;;;6.40;1.85;;;;;;;;;;5073409;28;20481;-30
2024/03/29 00:29:22;;;;;;;3.80;1.88;;;;;;;;;;5091251;28;20063;-29
2024/03/29 00:31:49;;;;;;;4.93;1.83;;;;;;;;;;5091557;28;20016;-30
2024/03/29 00:34:16;;;;;;;6.50;1.73;;;;;;;;;;5091819;28;20023;-30
2024/03/29 00:36:43;;;;;;;5.20;1.95;;;;;;;;;;5093816;28;20157;-29
2024/03/29 00:39:11;;;;;;;7.05;1.95;;;;;;;;;;5095301;28;20032;-29
2024/03/29 00:41:38;;;;;;;8.25;1.83;;;;;;;;;;5095328;28;20047;-29
2024/03/29 00:44:05;;;;;;;4.97;1.88;;;;;;;;;;5095437;28;20020;-29
2024/03/29 00:46:32;;;;;;;5.85;1.60;;;;;;;;;;5095431;28;20031;-29
2024/03/29 00:48:59;;;;;;;6.18;2.10;;;;;;;;;;5095310;28;20492;-31
2024/03/29 00:51:26;;;;;;;3.90;1.60;;;;;;;;;;5095149;28;20067;-30
2024/03/29 00:53:54;;;;;;;4.38;1.75;;;;;;;;;;5095255;28;20107;-30
2024/03/29 00:56:21;;;;;;;3.05;1.73;;;;;;;;;;5095172;28;20028;-30
2024/03/29 00:58:48;;;;;;;4.30;1.80;;;;;;;;;;5094976;28;20020;-30
2024/03/29 01:01:16;;;;;;;4.32;1.70;;;;;;;;;;5094998;28;20020;-30
2024/03/29 01:03:43;;;;;;;2.45;1.30;;;;;;;;;;5095052;28;20052;-31
2024/03/29 01:06:10;;;;;;;4.03;1.60;;;;;;;;;;5095015;28;20408;-29
2024/03/29 01:08:37;;;;;;;2.97;1.80;;;;;;;;;;5095077;28;20043;-30
2024/03/29 01:11:04;;;;;;;2.70;1.50;;;;;;;;;;5094795;28;20031;-31
2024/03/29 01:13:31;;;;;;;3.72;1.60;;;;;;;;;;5094893;28;20020;-30
2024/03/29 01:15:58;;;;;;;7.40;1.60;;;;;;;;;;5094805;28;20056;-30
2024/03/29 01:18:25;;;;;;;4.95;1.50;;;;;;;;;;5094804;28;20062;-31
2024/03/29 01:20:52;;;;;;;3.50;1.40;;;;;;;;;;5094661;28;20028;-30
2024/03/29 01:23:19;;;;;;;2.55;1.70;;;;;;;;;;5094668;28;20115;-30
2024/03/29 01:25:46;;;;;;;4.28;1.60;;;;;;;;;;5094471;28;20452;-30
2024/03/29 01:28:13;;;;;;;5.40;1.75;;;;;;;;;;5094540;28;20091;-29
2024/03/29 01:30:40;;;;;;;4.72;1.45;;;;;;;;;;5076151;28;20431;-29
2024/03/29 01:33:07;;;;;;;3.45;1.40;;;;;;;;;;5094359;28;20027;-30
2024/03/29 01:35:34;;;;;;;3.42;1.50;;;;;;;;;;5076021;28;20082;-29
2024/03/29 01:38:01;;;;;;;4.80;1.77;;;;;;;;;;5094437;28;20028;-30
2024/03/29 01:40:28;;;;;;;4.88;1.50;;;;;;;;;;5094148;28;20028;-30
2024/03/29 01:42:55;;;;;;;4.63;1.98;;;;;;;;;;5094340;28;20458;-31
2024/03/29 01:45:22;;;;;;;2.88;1.42;;;;;;;;;;5094303;28;20028;-29
2024/03/29 01:47:49;;;;;;;2.95;1.40;;;;;;;;;;5093034;28;20028;-29
2024/03/29 01:50:16;;;;;;;4.95;1.70;;;;;;;;;;5094083;28;20024;-30
2024/03/29 01:52:44;;;;;;;4.18;1.60;;;;;;;;;;5093999;28;20044;-30
2024/03/29 01:55:11;;;;;;;4.68;1.73;;;;;;;;;;5094092;28;20024;-29
2024/03/29 01:57:38;;;;;;;3.78;1.85;;;;;;;;;;5093883;28;20028;-30
2024/03/29 02:00:06;;;;;;;3.38;1.40;;;;;;;;;;5093914;28;20020;-29
2024/03/29 02:02:36;;;;;;;4.05;1.38;;;;;;;;;;5093922;28;20016;-30
2024/03/29 02:05:04;;;;;;;4.43;1.60;;;;;;;;;;5093898;28;20489;-30
2024/03/29 02:07:31;;;;;;;5.25;1.70;;;;;;;;;;5093726;28;20497;-30
2024/03/29 02:09:58;;;;;;;3.95;1.52;;;;;;;;;;5093695;28;20027;-32
2024/03/29 02:12:25;;;;;;;5.05;1.50;;;;;;;;;;5094080;28;20020;-30
2024/03/29 02:14:52;;;;;;;3.58;1.58;;;;;;;;;;5093695;28;20389;-29
2024/03/29 02:17:19;;;;;;;3.03;1.60;;;;;;;;;;5093638;28;20104;-30
2024/03/29 02:19:46;;;;;;;3.58;1.60;;;;;;;;;;5093505;28;20028;-29
2024/03/29 02:22:16;;;;;;;5.60;1.70;;;;;;;;;;5093511;28;20077;-31
2024/03/29 02:24:43;;;;;;;4.60;1.80;;;;;;;;;;5093530;28;20474;-30
2024/03/29 02:27:10;;;;;;;2.65;1.58;;;;;;;;;;5093477;28;20036;-29
2024/03/29 02:29:37;;;;;;;3.67;1.65;;;;;;;;;;5093394;28;20385;-29
2024/03/29 02:32:05;;;;;;;4.10;1.60;;;;;;;;;;5093302;28;20528;-30
2024/03/29 02:34:31;;;;;;;2.75;1.70;;;;;;;;;;5093268;28;20069;-30
2024/03/29 02:36:59;;;;;;;5.30;1.92;;;;;;;;;;5093222;28;20038;-30
2024/03/29 02:39:26;;;;;;;2.67;1.55;;;;;;;;;;5093168;28;20013;-29
2024/03/29 02:41:53;;;;;;;3.05;1.70;;;;;;;;;;5093185;28;20024;-29
2024/03/29 02:44:20;;;;;;;3.67;1.40;;;;;;;;;;5093102;28;20024;-30
2024/03/29 02:46:47;;;;;;;5.22;1.50;;;;;;;;;;5093076;28;20436;-29
2024/03/29 02:49:14;;;;;;;3.17;1.50;;;;;;;;;;5092949;28;20046;-30
2024/03/29 02:51:41;;;;;;;2.28;1.13;;;;;;;;;;5092827;28;20127;-32
2024/03/29 02:54:08;;;;;;;3.30;1.40;;;;;;;;;;5092960;28;20027;-30
2024/03/29 02:56:34;;;;;;;3.80;1.50;;;;;;;;;;5092605;28;20036;-31
2024/03/29 02:59:02;;;;;;;4.88;1.48;;;;;;;;;;5092455;28;20028;-30
2024/03/29 03:01:29;;;;;;;3.13;1.45;;;;;;;;;;5092835;28;20504;-31
2024/03/29 03:03:56;;;;;;;3.03;1.38;;;;;;;;;;5092805;28;20028;-30
2024/03/29 03:06:23;;;;;;;4.70;1.40;;;;;;;;;;5092688;28;20032;-30
2024/03/29 03:11:35;;;;;;;2.58;1.30;;;;;;;;;;5092904;28;20086;-30
2024/03/29 03:14:02;;;;;;;4.97;1.58;;;;;;;;;;5092520;28;20028;-29
2024/03/29 03:16:29;;;;;;;1.88;1.30;;;;;;;;;;5092413;28;20051;-31
2024/03/29 03:18:55;;;;;;;3.83;1.88;;;;;;;;;;5092317;28;20016;-29
2024/03/29 03:21:22;;;;;;;5.82;1.77;;;;;;;;;;5092411;28;20024;-31
2024/03/29 03:23:49;;;;;;;3.70;1.30;;;;;;;;;;5092397;28;20023;-30
2024/03/29 03:26:16;;;;;;;3.95;1.50;;;;;;;;;;5092376;28;20024;-30
2024/03/29 03:28:43;;;;;;;3.97;1.60;;;;;;;;;;5092229;28;20013;-30
2024/03/29 03:31:10;;;;;;;1.90;1.27;;;;;;;;;;5092232;28;20099;-29
2024/03/29 03:33:37;;;;;;;3.60;1.42;;;;;;;;;;5092308;28;20024;-30
2024/03/29 03:36:04;;;;;;;3.17;1.40;;;;;;;;;;5092118;28;20393;-30
2024/03/29 03:38:34;;;;;;;3.75;1.42;;;;;;;;;;5092028;28;20393;-29
2024/03/29 03:41:01;;;;;;;4.22;1.20;;;;;;;;;;5092087;28;20020;-30
2024/03/29 03:43:28;;;;;;;3.63;1.35;;;;;;;;;;5092032;28;20418;-29
2024/03/29 03:45:55;;;;;;;3.40;1.30;;;;;;;;;;5092069;28;20164;-30
2024/03/29 03:48:22;;;;;;;2.65;1.50;;;;;;;;;;5092044;28;20091;-29
2024/03/29 03:50:49;;;;;;;2.33;1.50;;;;;;;;;;5091745;28;20016;-29
2024/03/29 03:53:16;;;;;;;3.95;1.10;;;;;;;;;;5091681;28;20502;-30
2024/03/29 03:55:43;;;;;;;3.35;1.42;;;;;;;;;;5091821;28;20457;-30
2024/03/29 03:58:10;;;;;;;3.22;1.23;;;;;;;;;;5092005;28;20498;-30
2024/03/29 04:00:38;;;;;;;2.25;1.13;;;;;;;;;;5091763;28;20103;-31
2024/03/29 04:03:05;;;;;;;2.45;1.20;;;;;;;;;;5091807;28;20107;-29
2024/03/29 04:05:33;;;;;;;1.40;1.20;;;;;;;;;;5091765;28;20024;-29
2024/03/29 04:08:00;;;;;;;2.08;1.20;;;;;;;;;;5092092;28;20020;-29
2024/03/29 04:10:26;;;;;;;4.10;1.73;;;;;;;;;;5090985;28;20020;-30
2024/03/29 04:12:53;;;;;;;4.25;1.23;;;;;;;;;;5091581;28;20452;-30
2024/03/29 04:15:21;;;;;;;3.63;1.20;;;;;;;;;;5091654;28;20085;-30
2024/03/29 04:17:48;;;;;;;2.40;1.25;;;;;;;;;;5091610;28;20032;-30
2024/03/29 04:20:14;;;;;;;3.70;1.10;;;;;;;;;;5091607;28;20016;-30
2024/03/29 04:22:41;;;;;;;2.20;1.20;;;;;;;;;;5091663;28;20107;-30
2024/03/29 04:25:09;;;;;;;2.75;1.45;;;;;;;;;;5091667;28;20024;-29
2024/03/29 04:27:36;;;;;;;3.08;1.50;;;;;;;;;;5091544;28;20084;-29
2024/03/29 04:30:02;;;;;;;2.72;1.33;;;;;;;;;;5091485;28;20047;-31
2024/03/29 04:32:29;;;;;;;2.25;1.35;;;;;;;;;;5091542;28;20107;-29
2024/03/29 04:34:56;;;;;;;4.90;1.50;;;;;;;;;;5091528;28;20088;-30
2024/03/29 04:37:23;;;;;;;2.60;1.38;;;;;;;;;;5091465;28;20386;-30
2024/03/29 04:39:50;;;;;;;2.38;1.20;;;;;;;;;;5091402;28;20028;-29
2024/03/29 04:42:17;;;;;;;3.05;1.33;;;;;;;;;;5091471;28;20028;-30
2024/03/29 04:44:44;;;;;;;2.22;1.27;;;;;;;;;;5091475;28;20039;-32
2024/03/29 04:47:11;;;;;;;3.28;1.35;;;;;;;;;;5091374;28;20059;-30
2024/03/29 04:49:38;;;;;;;1.65;1.25;;;;;;;;;;5091297;28;20027;-29
2024/03/29 04:52:09;;;;;;;1.80;1.27;;;;;;;;;;5091084;28;20513;-30
2024/03/29 04:54:36;;;;;;;2.53;1.30;;;;;;;;;;5091352;28;20475;-30
2024/03/29 04:57:06;;;;;;;1.40;1.00;;;;;;;;;;5091252;28;20036;-33
2024/03/29 04:59:33;;;;;;;2.05;0.98;;;;;;;;;;5091005;28;20081;-29
2024/03/29 05:02:00;;;;;;;1.83;1.25;;;;;;;;;;5091474;28;20043;-32
2024/03/29 05:04:28;;;;;;;2.25;1.27;;;;;;;;;;5091274;28;20031;-30
2024/03/29 05:06:59;;;;;;;3.33;1.33;;;;;;;;;;5091313;28;20039;-29
2024/03/29 05:09:26;;;;;;;2.33;1.17;;;;;;;;;;5091047;28;20061;-29
2024/03/29 05:11:53;;;;;;;2.40;1.20;;;;;;;;;;5091172;28;20020;-29
2024/03/29 05:14:22;;;;;;;4.47;1.20;;;;;;;;;;5091126;28;20111;-30
2024/03/29 05:16:49;;;;;;;1.83;1.20;;;;;;;;;;5091186;28;20036;-29
2024/03/29 05:19:16;;;;;;;2.33;1.20;;;;;;;;;;5091031;28;20020;-29
2024/03/29 05:21:43;;;;;;;3.42;1.25;;;;;;;;;;5091862;28;20016;-31
2024/03/29 05:24:10;;;;;;;3.10;1.40;;;;;;;;;;5094710;28;20024;-29
2024/03/29 05:26:37;;;;;;;3.65;1.02;;;;;;;;;;5094548;28;20511;-30
2024/03/29 05:29:05;;;;;;;3.78;1.20;;;;;;;;;;5094590;28;20016;-30
2024/03/29 05:31:32;;;;;;;1.75;1.35;;;;;;;;;;5094479;28;20043;-29
2024/03/29 05:34:00;;;;;;;3.53;1.10;;;;;;;;;;5094537;28;20077;-31
2024/03/29 05:36:27;;;;;;;2.38;1.38;;;;;;;;;;5094312;28;20047;-29
2024/03/29 05:38:54;;;;;;;2.92;1.30;;;;;;;;;;5094365;28;20382;-30
2024/03/29 05:41:21;;;;;;;3.03;1.30;;;;;;;;;;5094330;28;20394;-29
2024/03/29 05:43:48;;;;;;;2.30;1.35;;;;;;;;;;5094381;28;20023;-32
2024/03/29 05:46:17;;;;;;;2.03;1.40;;;;;;;;;;5094247;28;20539;-30
2024/03/29 05:48:44;;;;;;;2.22;1.20;;;;;;;;;;5093937;28;20032;-30
2024/03/29 05:51:11;;;;;;;1.63;1.15;;;;;;;;;;5094074;28;20119;-30
2024/03/29 05:53:38;;;;;;;2.45;1.50;;;;;;;;;;5094487;28;20462;-30
2024/03/29 05:56:05;;;;;;;3.78;1.40;;;;;;;;;;5094010;28;20767;-29
2024/03/29 05:58:34;;;;;;;1.55;1.10;;;;;;;;;;5093921;28;20024;-32
2024/03/29 06:01:01;;;;;;;1.38;1.00;;;;;;;;;;5092786;28;20513;-29
2024/03/29 06:03:29;;;;;;;2.78;1.13;;;;;;;;;;5093997;28;20028;-30
2024/03/29 06:05:56;;;;;;;2.08;1.20;;;;;;;;;;5093782;28;20036;-29
2024/03/29 06:08:25;;;;;;;1.73;1.30;;;;;;;;;;5093824;28;20024;-30
2024/03/29 06:10:52;;;;;;;2.55;1.13;;;;;;;;;;5093639;28;20036;-31
2024/03/29 06:18:49;;;;;;;1.63;1.17;;;;;;;;;;5093583;28;20498;-29
2024/03/29 06:21:16;;;;;;;1.77;1.17;;;;;;;;;;5093602;28;20022;-29
2024/03/29 06:23:43;;;;;;;2.70;1.35;;;;;;;;;;5093605;28;20039;-29
2024/03/29 06:26:10;;;;;;;1.42;1.20;;;;;;;;;;5093566;28;20404;-30
2024/03/29 06:28:37;;;;;;;1.60;1.17;;;;;;;;;;5093430;28;20459;-32
2024/03/29 06:31:04;;;;;;;1.40;1.30;;;;;;;;;;5241524;22;20027;-30
2024/03/29 06:33:31;;;;;;;1.75;1.20;;;;;;;;;;5043412;28;20522;-31
2024/03/29 06:35:58;;;;;;;2.55;1.30;;;;;;;;;;5033396;28;20426;-31
2024/03/29 06:38:25;;;;;;;1.73;1.17;;;;;;;;;;5033285;28;20017;-31
2024/03/29 06:40:52;;;;;;;2.03;1.15;;;;;;;;;;5033239;28;20487;-31
2024/03/29 06:43:19;;;;;;;2.20;1.40;;;;;;;;;;5032930;28;20026;-31
2024/03/29 06:45:46;;;;;;;1.70;1.02;;;;;;;;;;5033105;28;20026;-31
2024/03/29 06:48:13;;;;;;;2.00;1.17;;;;;;;;;;5033031;28;20026;-31
2024/03/29 06:50:40;;;;;;;1.42;1.00;;;;;;;;;;5033275;28;20043;-32
2024/03/29 06:53:08;;;;;;;3.35;1.27;;;;;;;;;;5032903;28;20030;-32
2024/03/29 06:55:37;;;;;;;2.35;1.42;;;;;;;;;;5032669;28;20033;-31
2024/03/29 06:58:04;;;;;;;1.85;1.20;;;;;;;;;;5032711;28;20041;-31
2024/03/29 07:00:33;;;;;;;6.78;1.50;;;;;;;;;;5032674;28;20049;-31
2024/03/29 07:03:00;;;;;;;1.58;1.13;;;;;;;;;;5032731;28;20108;-31
2024/03/29 07:05:27;;;;;;;3.47;1.38;;;;;;;;;;5032657;28;20025;-31
2024/03/29 07:07:55;;;;;;;2.20;1.20;;;;;;;;;;5032679;28;20593;-31
2024/03/29 07:10:22;;;;;;;2.03;1.20;;;;;;;;;;5032422;28;20451;-32
2024/03/29 07:12:49;;;;;;;3.78;1.42;;;;;;;;;;5038863;28;20029;-32
2024/03/29 07:15:17;;;;;;;2.83;1.38;;;;;;;;;;5036408;28;20030;-32
2024/03/29 07:17:44;;;;;;;5.40;1.40;;;;;;;;;;5032320;28;20030;-32
2024/03/29 07:20:11;;;;;;;2.42;1.10;;;;;;;;;;5032413;28;20036;-31
2024/03/29 07:22:38;;;;;;;1.95;1.40;;;;;;;;;;5032310;28;20025;-32
2024/03/29 07:25:06;;;;;;;1.88;1.08;;;;;;;;;;5032360;28;20100;-32
2024/03/29 07:27:36;;;;;;;3.10;1.15;;;;;;;;;;5034412;28;20027;-32
2024/03/29 07:30:08;;;;;;;5.07;1.30;;;;;;;;;;5040900;28;20030;-32
2024/03/29 07:32:35;;;;;;;2.88;1.52;;;;;;;;;;5031865;28;20053;-32
2024/03/29 07:35:02;;;;;;;1.75;1.30;;;;;;;;;;5032209;28;20048;-32
2024/03/29 07:37:29;;;;;;;2.85;1.25;;;;;;;;;;5032030;28;20025;-32
2024/03/29 07:39:56;;;;;;;2.03;1.20;;;;;;;;;;5031988;28;20075;-31
2024/03/29 07:42:23;;;;;;;2.58;1.30;;;;;;;;;;5032137;28;20385;-32
2024/03/29 07:44:50;;;;;;;3.35;1.40;;;;;;;;;;5031512;28;20520;-32
2024/03/29 07:47:17;;;;;;;1.90;1.23;;;;;;;;;;5031647;28;20032;-32
2024/03/29 07:49:45;;;;;;;3.00;1.55;;;;;;;;;;5031975;28;20033;-31
2024/03/29 07:52:12;;;;;;;3.15;1.48;;;;;;;;;;5031643;28;20041;-31
2024/03/29 07:54:39;;;;;;;3.72;1.50;;;;;;;;;;5032165;28;20433;-32
2024/03/29 07:57:08;;;;;;;3.08;1.25;;;;;;;;;;5031771;28;20154;-32
2024/03/29 07:59:35;;;;;;;2.95;1.40;;;;;;;;;;5032280;28;20044;-32
2024/03/29 08:02:02;;;;;;;3.03;1.50;;;;;;;;;;5031747;28;20506;-32
2024/03/29 08:04:29;;;;;;;2.80;1.35;;;;;;;;;;5031771;28;20021;-32
2024/03/29 08:06:56;;;;;;;3.75;1.73;;;;;;;;;;5031721;28;20031;-32
2024/03/29 08:09:23;;;;;;;2.03;1.25;;;;;;;;;;5031676;28;20021;-32
2024/03/29 08:11:50;;;;;;;3.45;1.58;;;;;;;;;;5031924;28;20499;-32
2024/03/29 08:14:17;;;;;;;2.38;1.33;;;;;;;;;;5031666;28;20025;-32
2024/03/29 08:16:44;;;;;;;3.88;1.40;;;;;;;;;;5031546;28;20034;-31
2024/03/29 08:19:11;;;;;;;3.00;1.42;;;;;;;;;;5031641;28;20048;-32
2024/03/29 08:21:38;;;;;;;3.75;1.30;;;;;;;;;;5031544;28;20022;-31
2024/03/29 08:24:05;;;;;;;2.53;1.33;;;;;;;;;;5031650;28;20025;-32
2024/03/29 08:26:32;;;;;;;3.22;1.40;;;;;;;;;;5031614;28;20033;-31
2024/03/29 08:28:59;;;;;;;2.65;1.52;;;;;;;;;;5031565;28;20049;-32
2024/03/29 08:31:26;;;;;;;2.53;1.15;;;;;;;;;;5031310;28;20046;-32
2024/03/29 08:33:53;;;;;;;2.78;1.35;;;;;;;;;;5031519;28;20056;-32
2024/03/29 08:36:20;;;;;;;3.50;1.48;;;;;;;;;;5031248;28;20125;-32
2024/03/29 08:38:47;;;;;;;2.90;1.52;;;;;;;;;;5031455;28;20100;-31
2024/03/29 08:41:14;;;;;;;3.30;1.50;;;;;;;;;;5031296;28;20044;-32
2024/03/29 08:43:41;;;;;;;3.58;1.70;;;;;;;;;;5031401;28;20021;-31
2024/03/29 08:46:09;;;;;;;2.78;1.20;;;;;;;;;;5031429;28;20029;-31
2024/03/29 08:48:39;;;;;;;3.22;1.40;;;;;;;;;;5031358;28;20026;-32
2024/03/29 08:51:06;;;;;;;3.80;1.55;;;;;;;;;;5031082;28;20029;-32
2024/03/29 08:53:33;;;;;;;5.55;1.90;;;;;;;;;;5031270;28;20025;-32
2024/03/29 08:56:00;;;;;;;6.60;1.40;;;;;;;;;;5031246;28;20025;-31
2024/03/29 08:58:27;;;;;;;3.17;1.40;;;;;;;;;;5034837;28;20036;-32
2024/03/29 09:00:55;;;;;;;2.85;1.73;;;;;;;;;;5034972;28;20440;-32
2024/03/29 09:03:25;;;;;;;5.13;1.40;;;;;;;;;;5034938;28;20021;-32
2024/03/29 09:05:52;;;;;;;3.33;1.70;;;;;;;;;;5034836;28;20175;-32
2024/03/29 09:08:19;;;;;;;2.88;1.50;;;;;;;;;;5034957;28;20040;-31
2024/03/29 09:10:46;;;;;;;3.45;1.40;;;;;;;;;;5034683;28;20498;-32
2024/03/29 09:13:14;;;;;;;4.18;1.67;;;;;;;;;;5034773;28;20087;-31
2024/03/29 09:15:41;;;;;;;3.20;1.23;;;;;;;;;;5034782;28;20037;-31
2024/03/29 09:18:17;;;;;;;5.47;1.75;;;;;;;;;;5034682;28;20033;-31
2024/03/29 09:20:47;;;;;;;6.47;1.90;;;;;;;;;;5034478;28;20476;-32
2024/03/29 09:23:17;;;;;;;5.05;1.50;;;;;;;;;;5034644;28;20032;-32
2024/03/29 09:25:44;;;;;;;4.55;1.60;;;;;;;;;;5034457;28;20029;-32
2024/03/29 09:28:11;;;;;;;4.47;1.60;;;;;;;;;;5034577;28;20068;-31
2024/03/29 09:30:38;;;;;;;4.18;1.48;;;;;;;;;;5034431;28;20535;-31
2024/03/29 09:33:09;;;;;;;3.88;1.70;;;;;;;;;;5034292;28;20053;-32
2024/03/29 09:35:36;;;;;;;4.32;1.50;;;;;;;;;;5034211;28;20025;-31
2024/03/29 09:38:04;;;;;;;5.13;1.73;;;;;;;;;;5034304;28;20084;-31
2024/03/29 09:40:31;;;;;;;3.92;1.25;;;;;;;;;;5034176;28;20396;-32
2024/03/29 09:43:02;;;;;;;3.88;1.60;;;;;;;;;;5034073;28;20040;-31
2024/03/29 09:45:36;;;;;;;3.67;1.70;;;;;;;;;;5034111;28;20032;-31
2024/03/29 09:48:08;;;;;;;2.35;1.25;;;;;;;;;;5034036;28;20029;-31
2024/03/29 09:50:38;;;;;;;3.63;1.50;;;;;;;;;;5034043;28;20029;-31
2024/03/29 09:53:07;;;;;;;6.25;1.70;;;;;;;;;;5034086;28;20029;-31
2024/03/29 09:55:35;;;;;;;2.65;1.60;;;;;;;;;;5033895;28;20033;-31
2024/03/29 09:58:02;;;;;;;4.22;1.60;;;;;;;;;;5033855;28;20056;-31
2024/03/29 10:00:29;;;;;;;3.55;1.60;;;;;;;;;;5033853;28;20033;-32
2024/03/29 10:02:57;;;;;;;3.85;1.50;;;;;;;;;;5033820;28;20020;-31
2024/03/29 10:05:26;;;;;;;3.90;1.58;;;;;;;;;;5033822;28;20018;-31
2024/03/29 10:07:56;;;;;;;4.15;1.70;;;;;;;;;;5033010;28;20037;-31
2024/03/29 10:10:23;;;;;;;4.15;1.55;;;;;;;;;;5033381;28;20061;-31
2024/03/29 10:12:50;;;;;;;4.70;1.50;;;;;;;;;;5033620;28;20529;-31
2024/03/29 10:15:18;;;;;;;3.53;1.60;;;;;;;;;;5034016;28;20021;-31
2024/03/29 10:17:51;;;;;;;3.65;1.48;;;;;;;;;;5033420;28;20506;-32
2024/03/29 10:20:18;;;;;;;4.60;1.55;;;;;;;;;;5033733;28;20108;-31
2024/03/29 10:22:46;;;;;;;6.47;2.20;;;;;;;;;;5033516;28;20021;-31
2024/03/29 10:25:17;;;;;;;6.82;1.70;;;;;;;;;;5033408;28;20449;-31
2024/03/29 10:27:44;;;;;;;4.45;1.58;;;;;;;;;;5033476;28;20033;-31
2024/03/29 10:30:14;;;;;;;2.97;1.63;;;;;;;;;;5033348;28;20391;-31
2024/03/29 10:32:41;;;;;;;4.60;1.55;;;;;;;;;;5032947;28;20049;-32
2024/03/29 10:35:09;;;;;;;6.50;1.73;;;;;;;;;;5033356;28;20072;-31
2024/03/29 10:37:40;;;;;;;4.75;1.73;;;;;;;;;;5033208;28;20493;-31
2024/03/29 10:40:08;;;;;;;4.03;1.48;;;;;;;;;;5033165;28;20075;-31
2024/03/29 10:42:38;;;;;;;5.95;1.58;;;;;;;;;;5033040;28;20108;-31
2024/03/29 10:45:06;;;;;;;6.03;1.58;;;;;;;;;;5033138;28;20025;-31
2024/03/29 10:47:34;;;;;;;6.35;1.70;;;;;;;;;;5032953;28;20135;-31
2024/03/29 10:50:02;;;;;;;3.58;1.50;;;;;;;;;;5033013;28;20029;-31
2024/03/29 10:52:29;;;;;;;2.83;1.60;;;;;;;;;;5032842;28;20017;-31
2024/03/29 10:54:56;;;;;;;5.03;1.70;;;;;;;;;;5032979;28;20025;-31
2024/03/29 10:57:27;;;;;;;3.67;1.70;;;;;;;;;;5032838;28;20507;-31
2024/03/29 11:00:00;;;;;;;4.90;1.85;;;;;;;;;;5032838;28;20053;-32
2024/03/29 11:02:34;;;;;;;6.45;1.70;;;;;;;;;;5032748;28;20026;-31
2024/03/29 11:05:06;;;;;;;4.53;1.67;;;;;;;;;;5032914;28;20369;-31
2024/03/29 11:07:34;;;;;;;4.97;1.80;;;;;;;;;;5032677;28;20022;-31
2024/03/29 11:10:05;;;;;;;3.25;1.50;;;;;;;;;;5032522;28;20426;-31
2024/03/29 11:12:41;;;;;;;6.60;1.98;;;;;;;;;;5032507;28;20020;-31
2024/03/29 11:15:11;;;;;;;7.38;1.92;;;;;;;;;;5032571;28;20022;-31
2024/03/29 11:17:38;;;;;;;4.43;1.88;;;;;;;;;;5032422;28;20036;-31
2024/03/29 11:20:05;;;;;;;4.65;1.55;;;;;;;;;;5032281;28;20040;-31
2024/03/29 11:22:32;;;;;;;3.67;1.63;;;;;;;;;;5032301;28;20387;-31
2024/03/29 11:25:03;;;;;;;5.05;1.70;;;;;;;;;;5032345;28;20014;-31
2024/03/29 11:27:30;;;;;;;3.80;1.63;;;;;;;;;;5032210;28;20061;-31
2024/03/29 11:29:57;;;;;;;5.18;1.90;;;;;;;;;;5032254;28;20383;-31
2024/03/29 11:32:38;;;;;;;5.00;1.60;;;;;;;;;;5031951;28;20047;-31
2024/03/29 11:35:06;;;;;;;3.40;1.73;;;;;;;;;;5032021;28;20472;-31
2024/03/29 11:37:33;;;;;;;7.13;1.90;;;;;;;;;;5032072;28;20386;-31
2024/03/29 11:40:01;;;;;;;5.20;1.77;;;;;;;;;;5047287;28;20389;-31
2024/03/29 11:42:57;;;;;;;4.85;1.45;;;;;;;;;;5031969;28;20108;-31
2024/03/29 11:45:28;;;;;;;5.68;1.60;;;;;;;;;;5027265;28;20037;-31
2024/03/29 11:47:56;;;;;;;3.97;1.65;;;;;;;;;;5031833;28;20083;-31
2024/03/29 11:50:23;;;;;;;4.60;1.75;;;;;;;;;;5031865;28;20021;-31
2024/03/29 11:52:49;;;;;;;5.07;1.92;;;;;;;;;;5031885;28;20036;-31
2024/03/29 11:55:18;;;;;;;5.03;1.75;;;;;;;;;;5031817;28;20018;-32
2024/03/29 11:57:45;;;;;;;7.38;1.90;;;;;;;;;;5031635;28;20072;-31
2024/03/29 12:00:12;;;;;;;3.88;1.55;;;;;;;;;;5031845;28;20122;-31
2024/03/29 12:02:40;;;;;;;4.40;1.58;;;;;;;;;;5031609;28;20399;-31
2024/03/29 12:05:11;;;;;;;4.10;1.65;;;;;;;;;;5031659;28;20369;-31
2024/03/29 12:07:38;;;;;;;4.97;1.52;;;;;;;;;;5031751;28;20025;-32
2024/03/29 12:10:05;;;;;;;7.28;1.98;;;;;;;;;;5031744;28;20017;-31
2024/03/29 12:12:37;;;;;;;7.53;1.90;;;;;;;;;;5031695;28;20029;-31
2024/03/29 12:15:05;;;;;;;4.50;1.88;;;;;;;;;;5031602;28;20043;-31
2024/03/29 12:17:31;;;;;;;4.50;1.90;;;;;;;;;;5031672;28;20045;-31
2024/03/29 12:20:05;;;;;;;4.20;1.67;;;;;;;;;;5031538;28;20369;-31
2024/03/29 12:22:33;;;;;;;5.97;1.67;;;;;;;;;;5031445;28;20029;-31
2024/03/29 12:25:02;;;;;;;5.13;1.60;;;;;;;;;;5031919;28;20087;-31
2024/03/29 12:27:29;;;;;;;9.90;1.90;;;;;;;;;;5031601;28;20025;-31
2024/03/29 12:29:56;;;;;;;4.05;1.60;;;;;;;;;;5031535;28;20028;-31
2024/03/29 12:32:25;;;;;;;5.72;1.98;;;;;;;;;;5033172;28;20057;-31
2024/03/29 12:34:53;;;;;;;4.88;1.60;;;;;;;;;;5035349;28;20029;-31
2024/03/29 12:37:23;;;;;;;6.30;1.80;;;;;;;;;;5035456;28;20030;-31
2024/03/29 12:39:53;;;;;;;5.68;1.80;;;;;;;;;;5035232;28;20399;-31
2024/03/29 12:42:20;;;;;;;5.80;1.60;;;;;;;;;;5035221;28;20029;-31
2024/03/29 12:44:47;;;;;;;4.57;1.95;;;;;;;;;;5035383;28;20013;-31
2024/03/29 12:47:16;;;;;;;5.72;1.92;;;;;;;;;;5035345;28;20060;-31
2024/03/29 12:49:43;;;;;;;3.42;1.58;;;;;;;;;;5035319;28;20025;-31
2024/03/29 12:52:11;;;;;;;7.80;1.85;;;;;;;;;;5035104;28;20014;-31
2024/03/29 12:54:38;;;;;;;5.28;1.80;;;;;;;;;;5035144;28;20018;-31
2024/03/29 12:57:05;;;;;;;4.10;1.75;;;;;;;;;;5034995;28;20138;-31
2024/03/29 12:59:34;;;;;;;5.40;1.90;;;;;;;;;;5035061;28;20025;-31
2024/03/29 13:02:03;;;;;;;6.35;1.80;;;;;;;;;;5034794;28;20025;-31
2024/03/29 13:04:31;;;;;;;3.70;1.73;;;;;;;;;;5035042;28;20021;-31
2024/03/29 13:06:58;;;;;;;5.55;1.65;;;;;;;;;;5034991;28;20483;-31
2024/03/29 13:09:24;;;;;;;8.15;2.00;;;;;;;;;;5034901;28;20052;-31
2024/03/29 13:11:51;;;;;;;3.78;1.60;;;;;;;;;;5034878;28;20033;-31
2024/03/29 13:14:19;;;;;;;5.45;2.10;;;;;;;;;;5034812;28;20464;-31
2024/03/29 13:16:45;;;;;;;5.38;1.63;;;;;;;;;;5034728;28;20039;-31
2024/03/29 13:19:12;;;;;;;5.05;1.60;;;;;;;;;;5034687;28;20052;-31
2024/03/29 13:21:39;;;;;;;3.85;1.77;;;;;;;;;;5034601;28;20449;-31
2024/03/29 13:24:06;;;;;;;4.45;1.70;;;;;;;;;;5034926;28;20439;-31
2024/03/29 13:26:33;;;;;;;5.15;1.50;;;;;;;;;;5034568;28;20021;-31
2024/03/29 13:29:00;;;;;;;7.40;1.63;;;;;;;;;;5034588;28;20479;-31
2024/03/29 13:31:28;;;;;;;4.57;1.85;;;;;;;;;;5034324;28;20115;-33
2024/03/29 13:34:03;;;;;;;3.63;1.38;;;;;;;;;;5034393;28;20036;-31
2024/03/29 13:36:31;;;;;;;4.80;1.58;;;;;;;;;;5034247;28;20045;-31
2024/03/29 13:38:58;;;;;;;4.22;1.83;;;;;;;;;;5034449;28;20368;-31
2024/03/29 13:41:25;;;;;;;2.90;1.63;;;;;;;;;;5049453;28;20456;-31
2024/03/29 13:43:52;;;;;;;3.63;2.00;;;;;;;;;;5034269;28;20029;-31
2024/03/29 13:46:19;;;;;;;4.85;1.88;;;;;;;;;;5034233;28;20079;-31
2024/03/29 13:48:46;;;;;;;5.47;1.98;;;;;;;;;;5034177;28;20028;-31
2024/03/29 13:51:13;;;;;;;4.82;1.63;;;;;;;;;;5034084;28;20104;-32
2024/03/29 13:53:43;;;;;;;5.13;1.95;;;;;;;;;;5034081;28;20030;-31
2024/03/29 13:56:10;;;;;;;4.18;1.85;;;;;;;;;;5034017;28;20022;-31
2024/03/29 13:58:37;;;;;;;9.60;1.80;;;;;;;;;;5034054;28;20025;-31
2024/03/29 14:01:04;;;;;;;4.88;1.83;;;;;;;;;;5033843;28;20024;-32
2024/03/29 14:03:31;;;;;;;6.68;1.88;;;;;;;;;;5033984;28;20033;-31
2024/03/29 14:05:58;;;;;;;6.72;2.00;;;;;;;;;;5033929;28;20024;-31
2024/03/29 14:08:25;;;;;;;5.57;2.00;;;;;;;;;;5033901;28;20025;-31
2024/03/29 14:10:53;;;;;;;4.45;1.83;;;;;;;;;;5033825;28;20483;-32
2024/03/29 14:13:20;;;;;;;5.85;1.98;;;;;;;;;;5033704;28;20021;-31
2024/03/29 14:15:47;;;;;;;4.63;1.70;;;;;;;;;;5033775;28;20036;-31
2024/03/29 14:18:14;;;;;;;4.78;1.70;;;;;;;;;;5033612;28;20075;-31
2024/03/29 14:20:41;;;;;;;4.38;1.80;;;;;;;;;;5033537;28;20479;-32
2024/03/29 14:23:12;;;;;;;4.70;1.73;;;;;;;;;;5033532;28;20060;-31
2024/03/29 14:25:39;;;;;;;3.97;1.85;;;;;;;;;;5033448;28;20052;-31
2024/03/29 14:28:06;;;;;;;6.43;2.00;;;;;;;;;;5033564;28;20034;-31
2024/03/29 14:30:33;;;;;;;3.50;1.88;;;;;;;;;;5033345;28;20079;-32
2024/03/29 14:33:06;;;;;;;4.50;1.75;;;;;;;;;;5033092;28;20053;-31
2024/03/29 14:35:32;;;;;;;;;;;;;;;;;;5033920;28;20091;-31
2024/03/29 14:38:00;;;;;;;3.78;2.00;;;;;;;;;;5033253;28;20004;-31
2024/03/29 14:40:27;;;;;;;4.00;1.83;;;;;;;;;;5033101;28;20033;-31
2024/03/29 14:42:54;;;;;;;6.95;1.90;;;;;;;;;;5033193;28;20392;-32
2024/03/29 14:45:21;;;;;;;4.63;2.08;;;;;;;;;;5033332;28;20036;-31
2024/03/29 14:47:48;;;;;;;3.50;2.00;;;;;;;;;;5033120;28;20021;-31
2024/03/29 14:50:15;;;;;;;6.18;2.28;;;;;;;;;;5032973;28;20026;-32
2024/03/29 14:52:42;;;;;;;7.20;2.17;;;;;;;;;;5032975;28;20021;-31
2024/03/29 14:55:09;;;;;;;5.95;1.80;;;;;;;;;;5032456;28;20026;-31